Time;durP1;ratioP1;P1;durP2;ratioP2;P2;SDS_P1;SDS_P2;PMS_P1;PMS_P2;Temp;Humidity;BMP_temperature;BMP_pressure;BME280_temperature;BME280_humidity;BME280_pressure;Samples;Min_cycle;Max_cycle;Signal;HPM_P1;HPM_P2
2024/04/14 00:00:28;;;;;;;23.80;17.70;;;;;;;12.49;76.07;99141.67;227277;1267;24277;-75
2024/04/14 00:05:30;;;;;;;23.00;18.00;;;;;;;12.46;76.37;99131.59;227324;1270;22524;-74
2024/04/14 00:10:32;;;;;;;21.10;17.70;;;;;;;12.44;76.24;99123.46;227380;1271;25411;-74
2024/04/14 00:15:34;;;;;;;17.70;15.70;;;;;;;12.41;76.12;99113.86;227325;1272;22594;-75
2024/04/14 00:20:36;;;;;;;19.00;15.40;;;;;;;12.38;76.14;99106.77;227265;1272;22642;-75
2024/04/14 00:25:38;;;;;;;17.40;15.40;;;;;;;12.36;76.04;99101.78;227368;1267;22573;-74
2024/04/14 00:30:41;;;;;;;16.20;13.90;;;;;;;12.35;75.86;99101.48;227357;1272;23037;-74
2024/04/14 00:35:43;;;;;;;18.30;13.70;;;;;;;12.35;76.31;99098.99;227338;1258;22542;-74
2024/04/14 00:40:45;;;;;;;17.10;13.80;;;;;;;12.38;76.21;99090.98;227132;1270;22546;-74
2024/04/14 00:45:47;;;;;;;16.70;14.40;;;;;;;12.39;76.58;99082.69;227307;1270;22550;-74
2024/04/14 00:50:50;;;;;;;16.10;13.60;;;;;;;12.40;76.07;99074.70;227325;1267;22630;-74
2024/04/14 00:55:52;;;;;;;15.00;13.20;;;;;;;12.38;76.30;99078.92;227287;1270;22533;-74
2024/04/14 01:00:54;;;;;;;14.90;12.80;;;;;;;12.37;76.00;99077.94;227041;1267;22547;-74
2024/04/14 01:05:57;;;;;;;13.70;12.30;;;;;;;12.37;76.43;99075.16;227073;1272;24926;-75
2024/04/14 01:10:58;;;;;;;15.10;12.20;;;;;;;12.36;76.23;99078.42;227300;1270;22554;-75
2024/04/14 01:16:00;;;;;;;15.90;12.50;;;;;;;12.35;76.57;99070.30;227127;1272;238369;-75
2024/04/14 01:21:02;;;;;;;16.30;13.20;;;;;;;12.32;76.48;99062.89;227360;1270;22570;-74
2024/04/14 01:26:04;;;;;;;13.80;12.30;;;;;;;12.27;76.15;99055.36;227309;1267;22665;-75
2024/04/14 01:31:05;;;;;;;16.80;12.50;;;;;;;12.20;76.46;99050.41;227341;1270;24175;-74
2024/04/14 01:36:07;;;;;;;14.10;12.00;;;;;;;12.15;76.32;99048.27;227140;1270;22548;-75
2024/04/14 01:41:10;;;;;;;13.40;12.00;;;;;;;12.13;76.90;99042.30;227134;1272;25020;-75
2024/04/14 01:46:12;;;;;;;13.50;11.10;;;;;;;12.14;76.66;99037.59;227329;1270;22543;-75
2024/04/14 01:51:14;;;;;;;13.20;11.00;;;;;;;12.16;77.07;99028.47;227320;1269;22554;-74
2024/04/14 01:56:16;;;;;;;11.40;10.30;;;;;;;12.21;76.92;99028.25;227306;1272;23086;-75
2024/04/14 02:01:18;;;;;;;12.20;11.00;;;;;;;12.28;76.81;99020.61;227323;1272;22543;-74
2024/04/14 02:06:20;;;;;;;12.80;11.20;;;;;;;12.32;76.70;99010.52;227334;1270;22554;-75
2024/04/14 02:11:21;;;;;;;12.20;11.00;;;;;;;12.37;77.02;99009.98;227331;1267;26024;-75
2024/04/14 02:16:23;;;;;;;12.60;11.30;;;;;;;12.40;76.96;99005.73;227133;1266;22556;-75
2024/04/14 02:21:25;;;;;;;14.00;11.40;;;;;;;12.41;76.85;98999.82;227129;1270;22543;-74
2024/04/14 02:26:27;;;;;;;11.80;10.60;;;;;;;12.40;76.75;98999.57;227353;1267;22558;-75
2024/04/14 02:31:28;;;;;;;12.10;10.70;;;;;;;12.40;76.60;98992.73;227397;1270;22526;-74
2024/04/14 02:36:30;;;;;;;13.00;10.90;;;;;;;12.39;76.76;98989.05;227389;1269;23013;-74
2024/04/14 02:41:32;;;;;;;12.30;10.30;;;;;;;12.36;76.58;98979.81;227306;1272;22645;-74
2024/04/14 02:46:34;;;;;;;12.50;11.10;;;;;;;12.31;76.76;98970.89;227318;1269;22943;-75
2024/04/14 02:51:36;;;;;;;12.20;10.70;;;;;;;12.27;76.76;98967.41;227340;1272;22997;-74
2024/04/14 02:56:38;;;;;;;12.10;10.80;;;;;;;12.21;76.69;98964.96;227303;1271;22740;-73
2024/04/14 03:01:39;;;;;;;11.20;10.10;;;;;;;12.15;77.02;98969.65;227146;1270;22532;-74
2024/04/14 03:06:41;;;;;;;11.30;9.60;;;;;;;12.10;77.02;98977.44;227353;1270;22624;-74
2024/04/14 03:11:44;;;;;;;12.10;8.90;;;;;;;12.06;77.64;98977.48;227313;1267;22557;-75
2024/04/14 03:16:47;;;;;;;9.30;8.40;;;;;;;12.09;77.60;98974.83;227365;1267;22609;-75
2024/04/14 03:21:49;;;;;;;9.10;8.20;;;;;;;12.16;77.49;98967.22;227337;1269;22555;-75
2024/04/14 03:26:55;;;;;;;8.60;7.70;;;;;;;12.24;77.51;98963.23;227344;1267;22544;-74
2024/04/14 03:31:57;;;;;;;9.30;7.70;;;;;;;12.26;77.11;98955.06;227313;1267;22589;-74
2024/04/14 03:36:59;;;;;;;10.20;8.40;;;;;;;12.24;77.30;98942.33;227130;1270;23280;-74
2024/04/14 03:42:01;;;;;;;9.20;7.80;;;;;;;12.18;77.31;98919.09;227392;1272;22531;-75
2024/04/14 03:47:03;;;;;;;10.70;8.20;;;;;;;12.15;77.59;98922.31;227403;1267;22554;-73
2024/04/14 03:52:05;;;;;;;8.70;7.90;;;;;;;12.16;77.85;98930.22;227312;1272;22542;-74
2024/04/14 03:57:07;;;;;;;8.40;7.60;;;;;;;12.19;77.71;98927.41;227358;1267;23084;-74
2024/04/14 04:02:09;;;;;;;8.90;7.10;;;;;;;12.24;77.68;98924.88;227310;1269;22571;-74
2024/04/14 04:07:11;;;;;;;9.40;7.70;;;;;;;12.27;77.64;98921.80;227189;1270;22548;-75
2024/04/14 04:12:12;;;;;;;11.60;7.30;;;;;;;12.29;77.45;98914.93;227406;1269;22623;-74
2024/04/14 04:17:14;;;;;;;10.00;7.30;;;;;;;12.29;77.70;98903.89;227203;1270;23270;-74
2024/04/14 04:22:16;;;;;;;9.90;7.10;;;;;;;12.30;77.81;98896.32;227378;1272;22543;-74
2024/04/14 04:27:17;;;;;;;8.10;7.00;;;;;;;12.35;77.89;98900.88;227352;1267;22531;-76
2024/04/14 04:32:21;;;;;;;9.10;6.40;;;;;;;12.42;77.65;98907.98;227370;1270;22535;-75
2024/04/14 04:37:23;;;;;;;7.40;6.20;;;;;;;12.55;77.68;98904.86;227258;1266;22546;-75
2024/04/14 04:42:25;;;;;;;7.50;5.80;;;;;;;12.72;77.92;98900.36;227317;1264;22529;-75
2024/04/14 04:47:27;;;;;;;5.90;5.10;;;;;;;12.88;77.73;98890.58;227387;1271;22574;-74
2024/04/14 04:52:29;;;;;;;6.60;6.00;;;;;;;13.05;77.80;98881.45;227369;1269;22547;-75
2024/04/14 04:57:30;;;;;;;6.70;5.40;;;;;;;13.25;77.75;98873.70;227391;1270;22550;-74
2024/04/14 05:02:32;;;;;;;7.10;5.90;;;;;;;13.46;77.62;98868.94;227085;1270;22574;-75
2024/04/14 05:07:34;;;;;;;5.90;5.10;;;;;;;13.67;77.31;98867.91;227161;1270;22540;-75
2024/04/14 05:12:36;;;;;;;7.20;5.20;;;;;;;13.88;76.81;98863.35;227095;1270;22536;-75
2024/04/14 05:17:37;;;;;;;6.20;5.40;;;;;;;14.08;76.78;98861.14;227295;1264;22546;-75
2024/04/14 05:22:40;;;;;;;8.60;5.50;;;;;;;14.27;76.24;98867.14;227399;1269;22539;-75
2024/04/14 05:27:42;;;;;;;5.80;5.10;;;;;;;14.47;76.12;98867.46;227111;1270;22543;-74
2024/04/14 05:32:43;;;;;;;7.70;4.90;;;;;;;14.66;76.05;98874.21;227109;1270;22562;-74
2024/04/14 05:37:45;;;;;;;7.70;5.30;;;;;;;14.86;75.61;98873.34;227364;1263;22543;-74
2024/04/14 05:42:47;;;;;;;5.90;5.00;;;;;;;15.06;75.40;98868.96;227333;1269;22546;-74
2024/04/14 05:47:49;;;;;;;6.30;5.00;;;;;;;15.27;74.98;98873.70;227353;1272;22538;-75
2024/04/14 05:52:51;;;;;;;6.30;4.80;;;;;;;15.47;74.59;98873.34;227350;1270;22565;-75
2024/04/14 05:57:53;;;;;;;5.20;4.50;;;;;;;15.66;74.10;98875.80;227416;1272;22557;-75
2024/04/14 06:02:54;;;;;;;5.10;4.30;;;;;;;15.85;73.79;98871.23;227387;1269;22795;-75
2024/04/14 06:07:56;;;;;;;6.70;4.90;;;;;;;16.04;73.18;98872.11;227370;1266;22540;-75
2024/04/14 06:12:58;;;;;;;5.50;4.20;;;;;;;16.20;72.78;98870.43;227208;1267;23092;-75
2024/04/14 06:18:00;;;;;;;5.60;4.60;;;;;;;16.34;72.42;98872.61;227260;1270;22546;-75
2024/04/14 06:23:02;;;;;;;4.00;3.70;;;;;;;16.53;72.27;98865.45;227194;1271;22593;-75
2024/04/14 06:28:04;;;;;;;6.00;4.20;;;;;;;16.72;71.63;98864.14;227322;1269;22897;-74
2024/04/14 06:33:06;;;;;;;5.00;4.10;;;;;;;16.85;70.97;98865.10;227353;1270;22525;-75
2024/04/14 06:38:09;;;;;;;5.30;4.50;;;;;;;16.99;70.58;98859.41;227360;1270;22685;-75
2024/04/14 06:43:12;;;;;;;6.00;4.30;;;;;;;17.12;70.14;98864.67;227311;1272;22539;-75
2024/04/14 06:48:16;;;;;;;4.60;3.60;;;;;;;17.25;69.70;98864.26;227281;1270;23012;-74
2024/04/14 06:53:20;;;;;;;4.30;3.90;;;;;;;17.37;69.28;98858.62;227383;1272;23007;-75
2024/04/14 06:58:23;;;;;;;6.50;3.70;;;;;;;17.43;68.57;98858.29;227369;1268;22558;-75
2024/04/14 07:03:25;;;;;;;5.00;3.60;;;;;;;17.47;68.57;98864.39;227370;1269;25329;-75
2024/04/14 07:08:27;;;;;;;4.20;3.80;;;;;;;17.55;68.41;98859.17;227359;1269;22967;-76
2024/04/14 07:13:29;;;;;;;3.60;3.30;;;;;;;17.72;68.24;98855.61;227361;1269;22567;-75
2024/04/14 07:18:31;;;;;;;4.30;3.60;;;;;;;17.94;67.60;98854.90;227364;1270;22558;-75
2024/04/14 07:23:34;;;;;;;4.70;3.70;;;;;;;18.15;67.54;98852.48;227372;1269;22532;-75
2024/04/14 07:28:37;;;;;;;3.70;3.30;;;;;;;18.40;66.44;98845.79;227228;1272;22542;-75
2024/04/14 07:33:39;;;;;;;3.40;2.90;;;;;;;18.64;65.73;98846.92;227183;1266;22543;-75
2024/04/14 07:38:41;;;;;;;3.80;2.70;;;;;;;18.89;65.16;98847.58;227374;1266;22565;-75
2024/04/14 07:43:42;;;;;;;4.40;3.10;;;;;;;19.13;64.72;98842.95;227385;1250;23004;-74
2024/04/14 07:48:45;;;;;;;3.40;3.10;;;;;;;19.40;64.66;98852.10;227331;1262;23381;-75
2024/04/14 07:53:47;;;;;;;3.20;2.90;;;;;;;19.61;63.80;98850.59;227339;1270;22539;-75
2024/04/14 07:58:49;;;;;;;5.50;3.30;;;;;;;19.75;63.35;98851.19;227336;1266;22544;-75
2024/04/14 08:03:50;;;;;;;3.10;2.70;;;;;;;19.94;63.46;98854.08;227386;1270;22546;-75
2024/04/14 08:08:58;;;;;;;3.60;2.60;;;;;;;20.17;62.56;98854.40;227338;1269;22536;-75
2024/04/14 08:14:00;;;;;;;3.70;3.20;;;;;;;20.28;61.84;98845.86;227198;1270;22557;-75
2024/04/14 08:19:02;;;;;;;5.50;3.00;;;;;;;20.38;61.94;98845.98;227166;1270;22532;-75
2024/04/14 08:24:06;;;;;;;3.30;2.90;;;;;;;20.50;61.93;98846.20;227312;1269;22539;-75
2024/04/14 08:29:08;;;;;;;3.10;2.60;;;;;;;20.59;61.32;98844.87;227311;1269;22526;-75
2024/04/14 08:34:11;;;;;;;3.20;2.90;;;;;;;20.72;61.45;98843.88;227313;1272;22569;-75
2024/04/14 08:39:14;;;;;;;3.90;2.90;;;;;;;20.97;61.53;98842.20;227295;1263;22542;-75
2024/04/14 08:44:16;;;;;;;3.20;2.30;;;;;;;21.22;60.75;98848.27;227242;1267;22855;-75
2024/04/14 08:49:22;;;;;;;2.60;2.40;;;;;;;21.50;60.39;98850.18;227405;1272;24244;-74
2024/04/14 08:54:24;;;;;;;2.90;2.60;;;;;;;21.73;59.72;98844.27;227327;1269;22549;-75
2024/04/14 08:59:26;;;;;;;3.70;2.50;;;;;;;21.85;59.00;98846.77;227343;1269;22589;-75
2024/04/14 09:04:30;;;;;;;2.80;2.50;;;;;;;21.97;59.17;98846.21;227189;1270;25285;-76
2024/04/14 09:09:32;;;;;;;2.60;2.40;;;;;;;22.16;58.75;98845.00;227345;1270;22565;-76
2024/04/14 09:14:34;;;;;;;2.90;2.50;;;;;;;22.50;57.24;98848.21;227360;1269;22752;-74
2024/04/14 09:19:40;;;;;;;4.70;3.30;;;;;;;22.71;56.91;98850.45;227406;1266;22641;-75
2024/04/14 09:24:42;;;;;;;4.20;2.80;;;;;;;22.89;56.16;98838.23;227313;1268;22593;-75
2024/04/14 09:29:44;;;;;;;3.70;3.20;;;;;;;23.04;56.02;98843.59;227131;1271;22547;-76
2024/04/14 09:34:46;;;;;;;2.90;2.70;;;;;;;23.23;56.23;98843.02;227336;1271;25429;-75
2024/04/14 09:39:49;;;;;;;4.30;3.10;;;;;;;23.47;56.36;98834.20;227394;1272;22535;-74
2024/04/14 09:44:54;;;;;;;3.30;3.00;;;;;;;23.62;55.76;98830.09;227293;1272;24157;-76
2024/04/14 09:49:57;;;;;;;3.50;3.20;;;;;;;23.71;55.27;98823.61;227366;1269;22648;-76
2024/04/14 09:54:59;;;;;;;4.40;3.40;;;;;;;23.80;54.43;98822.40;227260;1272;22551;-76
2024/04/14 10:00:01;;;;;;;3.60;3.20;;;;;;;23.84;55.01;98822.35;227343;1268;22555;-75
2024/04/14 10:05:09;;;;;;;4.40;3.60;;;;;;;24.08;54.88;98822.02;227221;1270;22480;-76
2024/04/14 10:10:11;;;;;;;3.60;3.30;;;;;;;24.10;53.40;98810.63;227375;1272;22519;-76
2024/04/14 10:15:14;;;;;;;3.60;3.10;;;;;;;24.00;54.13;98812.11;227112;1272;22521;-75
2024/04/14 10:20:17;;;;;;;3.70;3.40;;;;;;;23.96;53.99;98806.17;227326;1267;22523;-74
2024/04/14 10:25:21;;;;;;;3.70;3.40;;;;;;;23.99;54.26;98806.98;227369;1272;23029;-75
2024/04/14 10:30:24;;;;;;;4.20;3.00;;;;;;;23.93;53.49;98804.19;227185;1270;22542;-75
2024/04/14 10:35:27;;;;;;;4.40;3.10;;;;;;;23.61;53.04;98803.11;227409;1267;22580;-75
2024/04/14 10:40:28;;;;;;;4.50;3.70;;;;;;;23.47;53.88;98796.85;227373;1268;22544;-75
2024/04/14 10:45:30;;;;;;;5.70;3.40;;;;;;;23.56;54.35;98798.11;227322;1263;22621;-76
2024/04/14 10:50:32;;;;;;;3.50;3.20;;;;;;;23.77;54.48;98796.78;227214;1271;22545;-74
2024/04/14 10:55:34;;;;;;;3.60;3.30;;;;;;;23.81;53.46;98793.31;227380;1269;22477;-75
2024/04/14 11:00:36;;;;;;;3.90;3.50;;;;;;;23.66;53.74;98793.67;227218;1266;22572;-76
2024/04/14 11:05:39;;;;;;;3.60;3.00;;;;;;;23.65;54.13;98789.79;227193;1271;24262;-75
2024/04/14 11:10:42;;;;;;;4.40;3.10;;;;;;;23.84;54.18;98786.17;227219;1270;22552;-74
2024/04/14 11:15:44;;;;;;;5.30;3.20;;;;;;;23.95;53.64;98786.09;227257;1272;22579;-76
2024/04/14 11:20:47;;;;;;;4.20;3.10;;;;;;;23.85;53.29;98782.25;227333;1269;22548;-75
2024/04/14 11:25:49;;;;;;;3.50;3.20;;;;;;;23.86;53.66;98785.80;227220;1272;22651;-75
2024/04/14 11:30:51;;;;;;;4.40;3.50;;;;;;;24.00;53.33;98782.04;227373;1266;25411;-74
2024/04/14 11:36:00;;;;;;;3.50;3.20;;;;;;;24.09;53.01;98785.67;227298;1272;22539;-75
2024/04/14 11:41:03;;;;;;;;;;;;;;;23.99;52.16;98768.48;227360;1269;22522;-74
2024/04/14 11:46:05;;;;;;;4.20;3.30;;;;;;;23.75;52.52;98766.08;227398;1272;22572;-75
2024/04/14 11:51:12;;;;;;;3.80;3.30;;;;;;;23.50;52.78;98759.16;227197;1266;25486;-75
2024/04/14 11:56:14;;;;;;;3.50;3.20;;;;;;;23.37;53.49;98752.48;227143;1272;24211;-76
2024/04/14 12:01:15;;;;;;;4.90;3.80;;;;;;;23.36;53.88;98745.19;227220;1270;22621;-74
2024/04/14 12:06:18;;;;;;;6.80;3.80;;;;;;;23.49;54.04;98737.05;227152;1272;22538;-76
2024/04/14 12:11:19;;;;;;;3.90;3.20;;;;;;;23.62;54.03;98738.86;227130;1272;22550;-76
2024/04/14 12:16:22;;;;;;;4.20;3.40;;;;;;;23.82;53.92;98744.85;227215;1272;22558;-75
2024/04/14 12:21:24;;;;;;;3.50;3.20;;;;;;;23.91;53.30;98739.74;227378;1269;24209;-75
2024/04/14 12:26:25;;;;;;;3.70;3.10;;;;;;;23.84;52.84;98729.30;227303;1269;22558;-75
2024/04/14 12:31:27;;;;;;;3.70;3.40;;;;;;;23.84;53.12;98725.58;227115;1270;22531;-76
2024/04/14 12:36:29;;;;;;;3.60;3.10;;;;;;;24.00;52.80;98720.77;227357;1263;22538;-75
2024/04/14 12:41:33;;;;;;;3.30;3.00;;;;;;;24.08;52.14;98712.35;227301;1269;22549;-75
2024/04/14 12:46:35;;;;;;;3.40;3.00;;;;;;;24.18;52.07;98702.41;227323;1269;22672;-75
2024/04/14 12:51:38;;;;;;;4.80;3.10;;;;;;;24.29;52.44;98691.27;227372;1272;22542;-75
2024/04/14 12:56:39;;;;;;;3.60;2.50;;;;;;;24.52;52.47;98689.77;227354;1270;22575;-75
2024/04/14 13:01:41;;;;;;;3.50;3.00;;;;;;;24.69;51.08;98677.85;227123;1269;22556;-76
2024/04/14 13:06:43;;;;;;;6.30;3.20;;;;;;;24.79;51.32;98674.42;227342;1272;22522;-74
2024/04/14 13:11:46;;;;;;;4.00;2.90;;;;;;;24.55;50.71;98667.80;227176;1271;22556;-74
2024/04/14 13:16:47;;;;;;;4.00;3.00;;;;;;;24.25;51.86;98659.84;227136;1269;224629;-75
2024/04/14 13:21:49;;;;;;;3.60;2.80;;;;;;;24.21;52.13;98654.81;227378;1269;25279;-75
2024/04/14 13:26:51;;;;;;;3.90;2.80;;;;;;;24.23;51.96;98640.84;227349;1269;22540;-75
2024/04/14 13:31:53;;;;;;;5.30;3.40;;;;;;;24.32;52.06;98628.33;227358;1271;22542;-76
2024/04/14 13:36:55;;;;;;;3.20;3.00;;;;;;;24.36;51.83;98620.95;227113;1270;22553;-75
2024/04/14 13:41:57;;;;;;;3.60;2.80;;;;;;;24.29;51.92;98615.17;227246;1269;22967;-75
2024/04/14 13:47:00;;;;;;;4.50;2.90;;;;;;;24.26;52.48;98619.02;227316;1269;23428;-75
2024/04/14 13:52:02;;;;;;;3.00;2.80;;;;;;;24.24;52.35;98625.72;227220;1271;23336;-75
2024/04/14 13:57:06;;;;;;;4.10;2.30;;;;;;;24.25;52.66;98625.23;227374;1269;22596;-74
2024/04/14 14:02:08;;;;;;;4.70;2.00;;;;;;;24.33;50.87;98628.31;227302;1263;22553;-76
2024/04/14 14:07:10;;;;;;;6.20;2.00;;;;;;;24.40;49.58;98623.84;227319;1270;22875;-77
2024/04/14 14:12:14;;;;;;;3.60;2.10;;;;;;;24.38;49.03;98626.38;227109;1272;22533;-75
2024/04/14 14:17:16;;;;;;;6.40;2.00;;;;;;;24.35;48.81;98631.33;227416;1270;22634;-75
2024/04/14 14:22:18;;;;;;;2.70;2.20;;;;;;;24.21;48.50;98637.94;227321;1272;22642;-75
2024/04/14 14:27:20;;;;;;;4.70;3.50;;;;;;;23.96;50.21;98653.89;227198;1272;22534;-75
2024/04/14 14:32:22;;;;;;;4.80;3.60;;;;;;;23.33;52.54;98642.89;227341;1268;22545;-75
2024/04/14 14:37:23;;;;;;;4.80;3.80;;;;;;;22.76;54.12;98647.02;227321;1269;22677;-75
2024/04/14 14:42:25;;;;;;;4.30;3.40;;;;;;;22.41;55.50;98654.21;227338;1270;25411;-75
2024/04/14 14:47:27;;;;;;;6.20;3.50;;;;;;;22.30;56.23;98662.20;227349;1268;22645;-75
2024/04/14 14:52:28;;;;;;;5.90;3.40;;;;;;;22.23;56.63;98657.63;227289;1269;22551;-75
2024/04/14 14:57:30;;;;;;;4.00;3.30;;;;;;;22.16;57.13;98667.67;227341;1272;22543;-75
2024/04/14 15:02:32;;;;;;;4.80;3.80;;;;;;;22.08;57.42;98677.58;227319;1269;22461;-74
2024/04/14 15:07:35;;;;;;;3.80;2.90;;;;;;;22.03;57.45;98675.23;227219;1272;22546;-74
2024/04/14 15:12:38;;;;;;;3.60;2.90;;;;;;;21.98;57.14;98676.11;227371;1269;23502;-75
2024/04/14 15:17:40;;;;;;;4.10;3.50;;;;;;;21.93;57.30;98675.07;227306;1270;22531;-75
2024/04/14 15:22:42;;;;;;;4.40;2.90;;;;;;;21.88;57.47;98668.85;227329;1270;22545;-75
2024/04/14 15:27:44;;;;;;;4.30;2.90;;;;;;;21.87;57.57;98673.27;227340;1269;22547;-75
2024/04/14 15:32:46;;;;;;;4.70;3.20;;;;;;;21.83;57.10;98677.98;227327;1269;22538;-74
2024/04/14 15:37:48;;;;;;;3.30;2.90;;;;;;;21.71;56.86;98687.24;227350;1270;22675;-74
2024/04/14 15:42:50;;;;;;;3.20;2.90;;;;;;;21.56;56.91;98684.70;227316;1270;22536;-74
2024/04/14 15:47:53;;;;;;;4.20;3.30;;;;;;;21.44;57.03;98676.36;227226;1272;24216;-75
2024/04/14 15:52:55;;;;;;;4.20;3.40;;;;;;;21.32;57.30;98676.55;227357;1270;22539;-75
2024/04/14 15:57:57;;;;;;;3.90;2.70;;;;;;;21.18;57.12;98689.45;227352;1268;22543;-76
2024/04/14 16:02:58;;;;;;;4.00;3.30;;;;;;;20.98;57.36;98686.57;227276;1269;22634;-75
2024/04/14 16:08:00;;;;;;;4.50;2.90;;;;;;;20.83;57.33;98687.91;227111;1272;22542;-75
2024/04/14 16:13:02;;;;;;;6.20;2.80;;;;;;;20.64;57.46;98694.61;227328;1269;24263;-76
2024/04/14 16:18:04;;;;;;;4.00;2.70;;;;;;;20.35;57.22;98708.16;227314;1272;22580;-75
2024/04/14 16:23:07;;;;;;;5.80;2.60;;;;;;;20.04;57.22;98709.80;227324;1270;22542;-75
2024/04/14 16:28:09;;;;;;;4.40;2.50;;;;;;;19.78;57.29;98703.70;227269;1272;22635;-75
2024/04/14 16:33:11;;;;;;;4.70;2.60;;;;;;;19.60;57.70;98710.33;227380;1269;22552;-76
2024/04/14 16:38:13;;;;;;;3.20;2.30;;;;;;;19.47;57.87;98723.75;227354;1270;22570;-76
2024/04/14 16:43:15;;;;;;;5.20;2.50;;;;;;;19.34;58.22;98711.64;227361;1272;22560;-75
2024/04/14 16:48:17;;;;;;;3.60;2.80;;;;;;;19.23;58.43;98701.01;227131;1272;22552;-75
2024/04/14 16:53:19;;;;;;;6.30;2.40;;;;;;;19.13;58.19;98708.89;227359;1272;22549;-75
2024/04/14 16:58:21;;;;;;;3.40;2.30;;;;;;;19.05;58.26;98714.42;227330;1272;22535;-75
2024/04/14 17:03:23;;;;;;;3.40;2.10;;;;;;;18.93;58.01;98695.02;227327;1272;22687;-75
2024/04/14 17:08:25;;;;;;;3.30;2.00;;;;;;;18.78;58.16;98690.80;227311;1266;25914;-75
2024/04/14 17:13:27;;;;;;;4.80;2.30;;;;;;;18.60;58.44;98699.34;227329;1269;26057;-74
2024/04/14 17:18:28;;;;;;;3.60;2.00;;;;;;;18.41;58.50;98702.36;227286;1270;22570;-75
2024/04/14 17:23:30;;;;;;;4.40;2.10;;;;;;;18.22;58.77;98693.34;227110;1272;22539;-75
2024/04/14 17:28:32;;;;;;;3.50;2.30;;;;;;;18.05;59.09;98701.04;227332;1272;22539;-76
2024/04/14 17:33:34;;;;;;;2.40;2.20;;;;;;;17.90;59.29;98716.98;227272;1270;22544;-76
2024/04/14 17:38:36;;;;;;;3.70;2.40;;;;;;;17.75;59.58;98725.67;227217;1272;22541;-75
2024/04/14 17:43:37;;;;;;;3.70;2.50;;;;;;;17.60;59.70;98713.57;227201;1272;22491;-75
2024/04/14 17:48:39;;;;;;;2.70;2.40;;;;;;;17.44;59.82;98709.95;227347;1272;22526;-75
2024/04/14 17:53:44;;;;;;;4.50;2.10;;;;;;;17.30;59.89;98718.93;227331;1270;25684;-74
2024/04/14 17:58:46;;;;;;;2.60;2.30;;;;;;;17.16;60.02;98719.01;227139;1264;22549;-75
2024/04/14 18:03:51;;;;;;;2.30;2.10;;;;;;;17.06;60.18;98725.37;227328;1272;22539;-75
2024/04/14 18:08:53;;;;;;;4.40;2.10;;;;;;;16.98;60.27;98734.74;227163;1272;22550;-74
2024/04/14 18:13:56;;;;;;;4.10;2.10;;;;;;;16.93;60.51;98748.54;227289;1272;23160;-74
2024/04/14 18:18:58;;;;;;;3.30;1.90;;;;;;;16.88;60.55;98745.39;227340;1270;22547;-75
2024/04/14 18:24:00;;;;;;;6.10;2.10;;;;;;;16.84;60.62;98736.16;227058;1272;22554;-75
2024/04/14 18:29:04;;;;;;;3.60;2.00;;;;;;;16.77;60.61;98733.43;227093;1272;22551;-74
2024/04/14 18:34:05;;;;;;;4.90;2.20;;;;;;;16.64;60.70;98717.33;227341;1272;22565;-74
2024/04/14 18:39:08;;;;;;;4.90;2.30;;;;;;;16.47;60.89;98725.15;227352;1269;22557;-76
2024/04/14 18:44:10;;;;;;;5.60;2.40;;;;;;;16.31;61.08;98730.34;227275;1272;22542;-74
2024/04/14 18:49:11;;;;;;;3.70;2.30;;;;;;;16.15;61.33;98734.90;227293;1272;22627;-75
2024/04/14 18:54:13;;;;;;;11.30;3.60;;;;;;;15.98;61.55;98737.70;227360;1272;22560;-75
2024/04/14 18:59:15;;;;;;;5.70;2.80;;;;;;;15.82;61.86;98734.20;227339;1272;22544;-75
2024/04/14 19:04:17;;;;;;;3.20;2.40;;;;;;;15.71;62.11;98727.69;227296;1267;22621;-75
2024/04/14 19:09:18;;;;;;;3.60;2.30;;;;;;;15.61;62.34;98721.80;227355;1272;22539;-75
2024/04/14 19:14:20;;;;;;;4.50;2.50;;;;;;;15.55;62.45;98726.25;227343;1272;22541;-75
2024/04/14 19:19:22;;;;;;;3.80;2.20;;;;;;;15.53;62.88;98755.42;227257;1272;23296;-74
2024/04/14 19:24:24;;;;;;;3.80;2.30;;;;;;;15.53;63.02;98762.67;227359;1270;24236;-74
2024/04/14 19:29:27;;;;;;;5.70;2.80;;;;;;;15.54;62.82;98751.89;227120;1271;24255;-74
2024/04/14 19:34:29;;;;;;;3.20;2.60;;;;;;;15.52;63.06;98739.41;227362;1269;22548;-75
2024/04/14 19:39:31;;;;;;;4.50;2.40;;;;;;;15.47;63.15;98750.48;227353;1270;22589;-74
2024/04/14 19:44:32;;;;;;;3.40;2.60;;;;;;;15.40;62.98;98751.50;227145;1271;24611;-74
2024/04/14 19:49:34;;;;;;;4.40;2.70;;;;;;;15.34;63.34;98745.93;227351;1272;22557;-75
2024/04/14 19:54:36;;;;;;;3.40;2.60;;;;;;;15.29;63.44;98751.75;227310;1272;22549;-74
2024/04/14 19:59:38;;;;;;;5.20;3.10;;;;;;;15.23;63.45;98759.52;227326;1271;22568;-74
2024/04/14 20:04:44;;;;;;;5.90;3.00;;;;;;;15.15;63.63;98756.02;227163;1272;22535;-75
2024/04/14 20:09:46;;;;;;;4.70;3.50;;;;;;;15.06;63.71;98744.09;227324;1270;22546;-76
2024/04/14 20:14:48;;;;;;;3.50;2.10;;;;;;;14.94;63.94;98748.13;227342;1271;22566;-75
2024/04/14 20:19:50;;;;;;;4.10;2.30;;;;;;;14.83;64.04;98751.85;227384;1272;22558;-75
2024/04/14 20:24:52;;;;;;;5.00;2.40;;;;;;;14.73;64.39;98747.95;227261;1270;23119;-75
2024/04/14 20:29:54;;;;;;;4.00;2.30;;;;;;;14.62;64.60;98751.22;227382;1269;24241;-75
2024/04/14 20:34:55;;;;;;;4.60;2.40;;;;;;;14.54;64.76;98748.73;227408;1270;22538;-75
2024/04/14 20:39:57;;;;;;;5.00;2.50;;;;;;;14.46;64.96;98753.07;227378;1270;22755;-74
2024/04/14 20:44:59;;;;;;;3.60;2.50;;;;;;;14.41;65.18;98754.35;227337;1272;24199;-75
2024/04/14 20:50:01;;;;;;;4.50;2.30;;;;;;;14.36;65.26;98753.23;227247;1272;23008;-74
2024/04/14 20:55:03;;;;;;;4.10;2.50;;;;;;;14.32;65.55;98751.52;227325;1270;23106;-74
2024/04/14 21:00:06;;;;;;;6.40;3.20;;;;;;;14.23;65.71;98751.90;227145;1272;22535;-75
2024/04/14 21:05:08;;;;;;;5.20;3.20;;;;;;;14.11;66.16;98765.28;227344;1272;24280;-75
2024/04/14 21:10:09;;;;;;;3.60;3.00;;;;;;;13.98;66.39;98770.71;227340;1270;22539;-74
2024/04/14 21:15:12;;;;;;;3.60;3.00;;;;;;;13.87;66.73;98778.36;227309;1272;22535;-74
2024/04/14 21:20:14;;;;;;;6.90;3.50;;;;;;;13.77;67.52;98782.64;227380;1264;24187;-74
2024/04/14 21:25:16;;;;;;;4.70;3.50;;;;;;;13.70;67.65;98788.20;227380;1272;22592;-75
2024/04/14 21:30:18;;;;;;;5.10;4.00;;;;;;;13.66;68.24;98792.25;227355;1272;25288;-74
2024/04/14 21:35:20;;;;;;;6.40;4.60;;;;;;;13.61;68.46;98790.89;227350;1272;22537;-74
2024/04/14 21:40:22;;;;;;;6.70;3.60;;;;;;;13.53;68.48;98792.73;227334;1270;23070;-75
2024/04/14 21:45:24;;;;;;;4.90;3.10;;;;;;;13.44;67.93;98797.93;227365;1272;22552;-74
2024/04/14 21:50:26;;;;;;;8.60;3.80;;;;;;;13.36;68.19;98800.74;227382;1271;22546;-75
2024/04/14 21:55:28;;;;;;;6.90;3.40;;;;;;;13.33;67.63;98793.55;227350;1270;22550;-74
2024/04/14 22:00:30;;;;;;;6.30;2.50;;;;;;;13.27;67.68;98781.23;227317;1270;22554;-74
2024/04/14 22:05:32;;;;;;;5.40;2.90;;;;;;;13.22;67.50;98777.60;227354;1267;22551;-74
2024/04/14 22:10:34;;;;;;;3.90;2.20;;;;;;;13.18;67.29;98768.77;227337;1270;22553;-74
2024/04/14 22:15:36;;;;;;;4.80;2.50;;;;;;;13.14;67.16;98765.39;227310;1269;22545;-75
2024/04/14 22:20:37;;;;;;;5.20;2.80;;;;;;;13.09;67.14;98757.91;227374;1270;23966;-75
2024/04/14 22:25:39;;;;;;;4.30;2.40;;;;;;;13.02;67.05;98748.41;227206;1272;22578;-75
2024/04/14 22:30:41;;;;;;;5.70;2.80;;;;;;;12.97;66.88;98756.48;227370;1270;25403;-75
2024/04/14 22:35:43;;;;;;;5.70;2.60;;;;;;;12.95;66.88;98748.80;227362;1261;22558;-74
2024/04/14 22:40:45;;;;;;;7.30;4.40;;;;;;;12.94;66.89;98743.02;227308;1267;22542;-74
2024/04/14 22:45:47;;;;;;;11.40;5.10;;;;;;;12.94;66.66;98741.66;227380;1267;22652;-74
2024/04/14 22:50:48;;;;;;;12.40;6.30;;;;;;;12.94;66.75;98744.81;227368;1272;22526;-73
2024/04/14 22:55:50;;;;;;;11.10;5.70;;;;;;;12.95;67.08;98737.30;227423;1269;22547;-75
2024/04/14 23:00:52;;;;;;;11.60;5.60;;;;;;;12.95;67.05;98729.67;227104;1272;22564;-75
2024/04/14 23:05:54;;;;;;;6.50;3.80;;;;;;;12.93;66.97;98721.71;227360;1270;22543;-74
2024/04/14 23:10:56;;;;;;;6.70;2.80;;;;;;;12.90;67.13;98719.40;227337;1269;24770;-74
2024/04/14 23:15:58;;;;;;;4.60;2.90;;;;;;;12.87;67.26;98716.18;227391;1269;22562;-73